• Join FlightAware (Why Join?)
  • Login
  • US Flag 
07:47PM EDT


 

Airport Tracker/Info


-or-


 

Live Flight TrackerFlight Track Log ✈ AAL907 ✈ 01-May-2012 ✈ KMIA - SBGR / GRU

Flight Track Log - Related Links

Times and Time Zones

All times are in EDT time to prevent confusion due to time zone crossing. See the AAL907 flight status page for this flight to view local times or setup timezone preferences in your user account.

Time Position Orientation Groundspeed Altitude Reporting Facility
EDT Latitude Longitude Course Direction KTS MPH feet Rate Location/Type
09:12PM 25.7767 -80.2634 107° East  Level FlightAware Approximate
09:13PM 25.7405 -80.1261 286° West  Level FlightAware Approximate
09:14PM 25.7639 -80.2158 117° Southeast 180 207 2,300  Level Miami Center
09:15PM 25.7361 -80.1550 103° East 250 288 3,900 1,920 Climbing Miami Center
09:16PM 25.7211 -80.0833 103° East 256 295 6,200 2,160 Climbing Miami Center
09:17PM 25.7039 -80.0019 102° East 256 295 8,300 2,040 Climbing Miami Center
09:18PM 25.6889 -79.9211 105° East 261 300 10,300 1,320 Climbing Miami Center
09:19PM 25.6658 -79.8236 102° East 285 328 11,000 1,320 Climbing Miami Center
09:20PM 25.6450 -79.7147 110° East 323 372 13,000 2,040 Climbing Miami Center
09:21PM 25.6094 -79.6081 130° Southeast 355 409 15,100 1,920 Climbing Miami Center
09:22PM 25.5361 -79.5119 130° Southeast 374 430 16,900 1,740 Climbing Miami Center
09:23PM 25.4583 -79.4089 130° Southeast 408 470 18,600 1,800 Climbing Miami Center
09:24PM 25.3789 -79.3036 130° Southeast 437 503 20,500 1,800 Climbing Miami Center
09:25PM 25.2989 -79.1964 128° Southeast 449 517 22,300 1,680 Climbing Miami Center
09:26PM 25.2214 -79.0869 129° Southeast 455 524 23,900 1,500 Climbing Miami Center
09:27PM 25.1353 -78.9706 130° Southeast 467 537 25,400 1,380 Climbing Miami Center
09:28PM 25.0594 -78.8708 130° Southeast 472 543 26,700 1,320 Climbing Miami Center
09:29PM 24.9689 -78.7500 131° Southeast 486 559 28,100 1,260 Climbing Miami Center
09:30PM 24.8764 -78.6319 127° Southeast 497 572 29,300 1,140 Climbing Miami Center
09:31PM 24.7900 -78.5069 130° Southeast 507 583 30,400 1,080 Climbing Miami Center
09:32PM 24.6972 -78.3844 131° Southeast 514 592 31,500 1,080 Climbing Miami Center
09:33PM 24.6025 -78.2644 129° Southeast 514 592 32,600 1,080 Climbing Miami Center
09:34PM 24.5075 -78.1378 130° Southeast 526 605 33,700 1,020 Climbing Miami Center
09:35PM 24.4144 -78.0181 129° Southeast 531 611 34,700 600 Climbing Miami Center
09:36PM 24.3211 -77.8919 129° Southeast 531 611 35,000 120 Climbing Miami Center
09:37PM 24.2281 -77.7681 130° Southeast 531 611 35,000  Level Miami Center
09:38PM 24.1325 -77.6444 130° Southeast 531 611 35,000  Level Miami Center
09:39PM 24.0392 -77.5211 130° Southeast 531 611 35,000  Level Miami Center
09:40PM 23.9433 -77.3978 130° Southeast 536 617 35,000  Level Miami Center
09:41PM 23.8478 -77.2725 130° Southeast 529 609 35,000  Level Miami Center
09:42PM 23.7539 -77.1494 130° Southeast 536 617 35,000  Level Miami Center
09:43PM 23.6581 -77.0244 129° Southeast 531 611 35,000  Level Miami Center
09:44PM 23.5639 -76.8997 131° Southeast 531 611 35,000  Level Miami Center
09:45PM 23.4658 -76.7772 130° Southeast 531 611 35,000  Level Miami Center
09:46PM 23.3592 -76.6394 131° Southeast 537 618 35,000  Level Miami Center
09:47PM 23.2647 -76.5197 131° Southeast 532 612 35,000  Level Miami Center
09:48PM 23.1703 -76.4003 130° Southeast 532 612 35,000  Level Miami Center
09:49PM 23.0758 -76.2786 130° Southeast 532 612 35,000  Level Miami Center
09:50PM 22.9814 -76.1572 131° Southeast 532 612 35,000  Level Miami Center
09:51PM 22.8889 -76.0403 130° Southeast 532 612 35,000  Level Miami Center
09:52PM 22.7961 -75.9217 131° Southeast 532 612 35,000  Level Miami Center
09:53PM 22.7056 -75.8097 131° Southeast 521 600 35,000  Level Miami Center
09:54PM 22.6150 -75.6956 130° Southeast 502 578 35,000  Level Miami Center
09:55PM 22.5264 -75.5817 131° Southeast 502 578 35,000  Level Miami Center
09:56PM 22.4356 -75.4681 131° Southeast 507 583 35,000  Level Miami Center
09:57PM 22.3444 -75.3544 130° Southeast 507 583 35,000  Level Miami Center
09:58PM 22.2536 -75.2389 131° Southeast 507 583 35,000  Level Miami Center
09:59PM 22.1647 -75.1300 133° Southeast 501 577 35,000  Level Miami Center
10:00PM 22.0694 -75.0214 139° Southeast 496 571 35,000  Level Miami Center
10:01PM 21.9678 -74.9244 139° Southeast 486 559 35,000  Level Miami Center
10:02PM 21.8664 -74.8297 138° Southeast 486 559 35,000  Level Miami Center
10:03PM 21.7647 -74.7306 137° Southeast 486 559 35,000  Level Miami Center
10:04PM 21.6672 -74.6317 139° Southeast 486 559 35,000 60 Level Miami Center
10:05PM 21.5636 -74.5353 139° Southeast 492 566 35,200 600 Climbing Miami Center
10:06PM 21.4639 -74.4433 139° Southeast 486 559 36,300 600 Climbing Miami Center
10:07PM 21.3558 -74.3428 138° Southeast 492 566 36,500 240 Climbing Miami Center
10:08PM 21.2519 -74.2422 139° Southeast 497 572 36,900 180 Climbing Miami Center
10:09PM 21.1458 -74.1442 140° Southeast 497 572 36,900  Level Miami Center
10:10PM 21.0378 -74.0461 138° Southeast 502 578 37,000  Climbing Miami Center
10:11PM 20.9336 -73.9461 139° Southeast 507 583 36,900 -360 Descending Miami Center
10:12PM 20.8272 -73.8486 139° Southeast 507 583 36,400 -960 Descending Miami Center
10:13PM 20.7211 -73.7511 139° Southeast 507 583 35,100 -720 Descending Miami Center
10:14PM 20.6125 -73.6494 139° Southeast 512 589 35,000 -60 Descending Miami Center
10:15PM 20.5083 -73.5544 139° Southeast 506 582 35,000  Level Miami Center
10:16PM 20.4019 -73.4553 140° Southeast 506 582 35,000  Level Miami Center
10:17PM 20.2933 -73.3583 139° Southeast 506 582 35,000  Level Miami Center
10:18PM 20.1847 -73.2594 142° Southeast 511 588 35,000  Level Miami Center
10:26PM 19.3809 -72.5942 143° Southeast  Level FlightAware Approximate
10:27PM 19.2762 -72.5109 143° Southeast  Level FlightAware Approximate
10:28PM 19.1715 -72.4277 143° Southeast  Level FlightAware Approximate
10:29PM 19.0667 -72.3446 143° Southeast  Level FlightAware Approximate
10:30PM 18.9620 -72.2616 143° Southeast  Level FlightAware Approximate
10:31PM 18.8571 -72.1787 143° Southeast  Level FlightAware Approximate
10:32PM 18.7523 -72.0959 143° Southeast  Level FlightAware Approximate
10:33PM 18.6474 -72.0132 132° Southeast  Level FlightAware Approximate
10:34PM 18.5604 -71.9104 142° Southeast  Level FlightAware Approximate
10:35PM 18.4578 -71.8254 146° Southeast  Level FlightAware Approximate
10:36PM 18.3488 -71.7491 144° Southeast  Level FlightAware Approximate
10:37PM 18.2425 -71.6686 144° Southeast  Level FlightAware Approximate
10:38PM 18.1369 -71.5872 144° Southeast  Level FlightAware Approximate
10:39PM 18.0312 -71.5059 144° Southeast  Level FlightAware Approximate
10:40PM 17.9255 -71.4246 144° Southeast  Level FlightAware Approximate
10:41PM 17.8198 -71.3435 145° Southeast  Level FlightAware Approximate
10:42PM 17.7131 -71.2639 144° Southeast  Level FlightAware Approximate
10:43PM 17.6073 -71.1829 144° Southeast  Level FlightAware Approximate
10:44PM 17.5015 -71.1020 144° Southeast  Level FlightAware Approximate
10:45PM 17.3957 -71.0212 144° Southeast  Level FlightAware Approximate
10:46PM 17.2899 -70.9406 144° Southeast  Level FlightAware Approximate
10:47PM 17.1840 -70.8599 144° Southeast  Level FlightAware Approximate
10:48PM 17.0781 -70.7794 144° Southeast  Level FlightAware Approximate
10:49PM 16.9721 -70.6990 144° Southeast  Level FlightAware Approximate
10:50PM 16.8661 -70.6187 144° Southeast  Level FlightAware Approximate
10:51PM 16.7601 -70.5384 144° Southeast  Level FlightAware Approximate
10:52PM 16.6541 -70.4583 144° Southeast  Level FlightAware Approximate
10:53PM 16.5480 -70.3782 144° Southeast  Level FlightAware Approximate
10:54PM 16.4419 -70.2982 144° Southeast  Level FlightAware Approximate
10:55PM 16.3358 -70.2184 144° Southeast  Level FlightAware Approximate
10:56PM 16.2296 -70.1385 144° Southeast  Level FlightAware Approximate
10:57PM 16.1234 -70.0588 144° Southeast  Level FlightAware Approximate
10:58PM 16.0172 -69.9792 144° Southeast  Level FlightAware Approximate
10:59PM 15.9108 -69.8999 144° Southeast  Level FlightAware Approximate
11:00PM 15.8045 -69.8205 144° Southeast  Level FlightAware Approximate
11:01PM 15.6981 -69.7412 144° Southeast  Level FlightAware Approximate
11:02PM 15.5917 -69.6619 144° Southeast  Level FlightAware Approximate
11:03PM 15.4853 -69.5828 144° Southeast  Level FlightAware Approximate
11:04PM 15.3789 -69.5037 144° Southeast  Level FlightAware Approximate
11:05PM 15.2724 -69.4248 144° Southeast  Level FlightAware Approximate
11:06PM 15.1659 -69.3459 144° Southeast  Level FlightAware Approximate
11:07PM 15.0594 -69.2670 144° Southeast  Level FlightAware Approximate
11:08PM 14.9528 -69.1883 144° Southeast  Level FlightAware Approximate
11:09PM 14.8462 -69.1096 145° Southeast  Level FlightAware Approximate
11:10PM 14.7396 -69.0310 145° Southeast  Level FlightAware Approximate
11:11PM 14.6330 -68.9525 145° Southeast  Level FlightAware Approximate
11:12PM 14.5264 -68.8741 145° Southeast  Level FlightAware Approximate
11:13PM 14.4197 -68.7957 145° Southeast  Level FlightAware Approximate
11:14PM 14.3130 -68.7175 145° Southeast  Level FlightAware Approximate
11:15PM 14.2062 -68.6392 145° Southeast  Level FlightAware Approximate
11:16PM 14.0995 -68.5611 145° Southeast  Level FlightAware Approximate
11:17PM 13.9927 -68.4830 145° Southeast  Level FlightAware Approximate
11:18PM 13.8861 -68.4052 145° Southeast  Level FlightAware Approximate
11:19PM 13.7795 -68.3275 145° Southeast  Level FlightAware Approximate
11:20PM 13.6729 -68.2498 145° Southeast  Level FlightAware Approximate
11:21PM 13.5662 -68.1722 145° Southeast  Level FlightAware Approximate
11:22PM 13.4595 -68.0946 145° Southeast  Level FlightAware Approximate
11:23PM 13.3528 -68.0172 145° Southeast  Level FlightAware Approximate
11:24PM 13.2461 -67.9398 145° Southeast  Level FlightAware Approximate
11:25PM 13.1394 -67.8624 145° Southeast  Level FlightAware Approximate
11:26PM 13.0326 -67.7852 145° Southeast  Level FlightAware Approximate
11:27PM 12.9258 -67.7080 144° Southeast  Level FlightAware Approximate
11:28PM 12.8208 -67.6283 145° Southeast  Level FlightAware Approximate
11:29PM 12.7139 -67.5513 145° Southeast  Level FlightAware Approximate
11:30PM 12.6070 -67.4744 145° Southeast  Level FlightAware Approximate
11:31PM 12.5000 -67.3976 142° Southeast  Level FlightAware Approximate
11:32PM 12.3974 -67.3148 145° Southeast  Level FlightAware Approximate
11:33PM 12.2904 -67.2382 145° Southeast  Level FlightAware Approximate
11:34PM 12.1833 -67.1616 145° Southeast  Level FlightAware Approximate
11:35PM 12.0762 -67.0851 145° Southeast  Level FlightAware Approximate
11:36PM 11.9691 -67.0087 145° Southeast  Level FlightAware Approximate
11:37PM 11.8619 -66.9323 145° Southeast  Level FlightAware Approximate
11:38PM 11.7550 -66.8562 145° Southeast  Level FlightAware Approximate
11:39PM 11.6481 -66.7801 145° Southeast  Level FlightAware Approximate
11:40PM 11.5411 -66.7040 145° Southeast  Level FlightAware Approximate
11:41PM 11.4341 -66.6281 145° Southeast  Level FlightAware Approximate
11:42PM 11.3271 -66.5521 145° Southeast  Level FlightAware Approximate
11:43PM 11.2201 -66.4763 145° Southeast  Level FlightAware Approximate
11:44PM 11.1131 -66.4005 145° Southeast  Level FlightAware Approximate
11:45PM 11.0060 -66.3247 145° Southeast  Level FlightAware Approximate
11:46PM 10.8989 -66.2490 145° Southeast  Level FlightAware Approximate
11:47PM 10.7918 -66.1734 145° Southeast  Level FlightAware Approximate
11:48PM 10.6847 -66.0978 145° Southeast  Level FlightAware Approximate
11:49PM 10.5776 -66.0222 145° Southeast  Level FlightAware Approximate
11:50PM 10.4713 -65.9456 145° Southeast  Level FlightAware Approximate
11:51PM 10.3643 -65.8700 145° Southeast  Level FlightAware Approximate
11:52PM 10.2572 -65.7945 145° Southeast  Level FlightAware Approximate
11:53PM 10.1501 -65.7190 145° Southeast  Level FlightAware Approximate
11:54PM 10.0430 -65.6436 145° Southeast  Level FlightAware Approximate
11:55PM 9.9358 -65.5682 148° Southeast  Level FlightAware Approximate
11:56PM 9.8248 -65.4990 145° Southeast  Level FlightAware Approximate
11:57PM 9.7177 -65.4236 145° Southeast  Level FlightAware Approximate
11:58PM 9.6107 -65.3482 145° Southeast  Level FlightAware Approximate
11:59PM 9.5035 -65.2729 145° Southeast  Level FlightAware Approximate
12:00AM 9.3964 -65.1976 145° Southeast  Level FlightAware Approximate
12:01AM 9.2893 -65.1224 145° Southeast  Level FlightAware Approximate
12:02AM 9.1821 -65.0473 145° Southeast  Level FlightAware Approximate
12:03AM 9.0749 -64.9721 145° Southeast  Level FlightAware Approximate
12:04AM 8.9677 -64.8971 145° Southeast  Level FlightAware Approximate
12:05AM 8.8605 -64.8220 145° Southeast  Level FlightAware Approximate
12:06AM 8.7533 -64.7470 145° Southeast  Level FlightAware Approximate
12:07AM 8.6460 -64.6721 145° Southeast  Level FlightAware Approximate
12:08AM 8.5388 -64.5972 145° Southeast  Level FlightAware Approximate
12:09AM 8.4315 -64.5223 145° Southeast  Level FlightAware Approximate
12:10AM 8.3242 -64.4475 145° Southeast  Level FlightAware Approximate
12:11AM 8.2169 -64.3727 145° Southeast  Level FlightAware Approximate
12:12AM 8.1096 -64.2980 145° Southeast  Level FlightAware Approximate
12:13AM 8.0023 -64.2233 145° Southeast  Level FlightAware Approximate
12:14AM 7.8950 -64.1486 145° Southeast  Level FlightAware Approximate
12:15AM 7.7876 -64.0740 146° Southeast  Level FlightAware Approximate
12:16AM 7.6793 -64.0008 151° Southeast  Level FlightAware Approximate
12:17AM 7.5648 -63.9381 151° Southeast  Level FlightAware Approximate
12:18AM 7.4503 -63.8753 151° Southeast  Level FlightAware Approximate
12:19AM 7.3357 -63.8126 151° Southeast  Level FlightAware Approximate
12:20AM 7.2212 -63.7499 152° Southeast  Level FlightAware Approximate
12:21AM 7.1066 -63.6872 152° Southeast  Level FlightAware Approximate
12:22AM 6.9921 -63.6246 152° Southeast  Level FlightAware Approximate
12:23AM 6.8775 -63.5620 152° Southeast  Level FlightAware Approximate
12:24AM 6.7629 -63.4994 152° Southeast  Level FlightAware Approximate
12:25AM 6.6483 -63.4369 152° Southeast  Level FlightAware Approximate
12:26AM 6.5337 -63.3744 152° Southeast  Level FlightAware Approximate
12:27AM 6.4191 -63.3119 152° Southeast  Level FlightAware Approximate
12:28AM 6.3045 -63.2495 152° Southeast  Level FlightAware Approximate
12:29AM 6.1899 -63.1870 152° Southeast  Level FlightAware Approximate
12:30AM 6.0752 -63.1246 152° Southeast  Level FlightAware Approximate
12:31AM 5.9606 -63.0622 152° Southeast  Level FlightAware Approximate
12:32AM 5.8460 -62.9999 152° Southeast  Level FlightAware Approximate
12:33AM 5.7313 -62.9376 152° Southeast  Level FlightAware Approximate
12:34AM 5.6167 -62.8753 152° Southeast  Level FlightAware Approximate
12:35AM 5.5020 -62.8130 152° Southeast  Level FlightAware Approximate
12:36AM 5.3873 -62.7508 152° Southeast  Level FlightAware Approximate
12:37AM 5.2727 -62.6885 152° Southeast  Level FlightAware Approximate
12:38AM 5.1580 -62.6263 152° Southeast  Level FlightAware Approximate
12:39AM 5.0433 -62.5642 152° Southeast  Level FlightAware Approximate
12:40AM 4.9286 -62.5020 152° Southeast  Level FlightAware Approximate
12:41AM 4.8139 -62.4399 152° Southeast  Level FlightAware Approximate
12:42AM 4.6992 -62.3778 152° Southeast  Level FlightAware Approximate
12:43AM 4.5845 -62.3157 152° Southeast  Level FlightAware Approximate
12:44AM 4.4698 -62.2536 152° Southeast  Level FlightAware Approximate
12:45AM 4.3551 -62.1915 152° Southeast  Level FlightAware Approximate
12:46AM 4.2403 -62.1295 152° Southeast  Level FlightAware Approximate
12:47AM 4.1256 -62.0675 152° Southeast  Level FlightAware Approximate
12:48AM 4.0108 -62.0055 152° Southeast  Level FlightAware Approximate
12:49AM 3.8961 -61.9435 152° Southeast  Level FlightAware Approximate
12:50AM 3.7814 -61.8815 152° Southeast  Level FlightAware Approximate
12:51AM 3.6666 -61.8196 152° Southeast  Level FlightAware Approximate
12:52AM 3.5519 -61.7577 152° Southeast  Level FlightAware Approximate
12:53AM 3.4383 -61.6964 152° Southeast  Level FlightAware Approximate
12:54AM 3.3248 -61.6352 152° Southeast  Level FlightAware Approximate
12:55AM 3.2113 -61.5740 152° Southeast  Level FlightAware Approximate
12:56AM 3.0978 -61.5128 152° Southeast  Level FlightAware Approximate
12:57AM 2.9843 -61.4516 152° Southeast  Level FlightAware Approximate
12:58AM 2.8707 -61.3904 152° Southeast  Level FlightAware Approximate
12:59AM 2.7571 -61.3294 152° Southeast  Level FlightAware Approximate
01:00AM 2.6434 -61.2685 152° Southeast  Level FlightAware Approximate
01:01AM 2.5298 -61.2075 152° Southeast  Level FlightAware Approximate
01:02AM 2.4161 -61.1466 152° Southeast  Level FlightAware Approximate
01:03AM 2.3025 -61.0857 152° Southeast  Level FlightAware Approximate
01:04AM 2.1888 -61.0248 152° Southeast  Level FlightAware Approximate
01:05AM 2.0752 -60.9639 152° Southeast  Level FlightAware Approximate
01:06AM 1.9615 -60.9030 152° Southeast  Level FlightAware Approximate
01:07AM 1.8478 -60.8421 152° Southeast  Level FlightAware Approximate
01:08AM 1.7342 -60.7812 152° Southeast  Level FlightAware Approximate
01:09AM 1.6205 -60.7203 152° Southeast  Level FlightAware Approximate
01:10AM 1.5068 -60.6595 152° Southeast  Level FlightAware Approximate
01:11AM 1.3931 -60.5986 152° Southeast  Level FlightAware Approximate
01:12AM 1.2795 -60.5378 152° Southeast  Level FlightAware Approximate
01:13AM 1.1658 -60.4769 152° Southeast  Level FlightAware Approximate
01:14AM 1.0521 -60.4161 152° Southeast  Level FlightAware Approximate
01:15AM 0.9384 -60.3552 152° Southeast  Level FlightAware Approximate
01:16AM 0.8247 -60.2944 152° Southeast  Level FlightAware Approximate
01:17AM 0.7111 -60.2336 152° Southeast  Level FlightAware Approximate
01:18AM 0.5974 -60.1727 152° Southeast  Level FlightAware Approximate
01:19AM 0.4837 -60.1119 152° Southeast  Level FlightAware Approximate
01:20AM 0.3700 -60.0511 152° Southeast  Level FlightAware Approximate
01:21AM 0.2563 -59.9903 152° Southeast  Level FlightAware Approximate
01:22AM 0.1427 -59.9295 152° Southeast  Level FlightAware Approximate
01:23AM 0.0290 -59.8686 152° Southeast  Level FlightAware Approximate
01:24AM -0.0847 -59.8078 152° Southeast  Level FlightAware Approximate
01:25AM -0.1984 -59.7470 152° Southeast  Level FlightAware Approximate
01:26AM -0.3121 -59.6862 152° Southeast  Level FlightAware Approximate
01:27AM -0.4257 -59.6254 152° Southeast  Level FlightAware Approximate
01:28AM -0.5394 -59.5645 152° Southeast  Level FlightAware Approximate
01:29AM -0.6531 -59.5037 152° Southeast  Level FlightAware Approximate
01:30AM -0.7668 -59.4429 152° Southeast  Level FlightAware Approximate
01:31AM -0.8805 -59.3821 152° Southeast  Level FlightAware Approximate
01:32AM -0.9941 -59.3212 152° Southeast  Level FlightAware Approximate
01:33AM -1.1078 -59.2604 152° Southeast  Level FlightAware Approximate
01:34AM -1.2215 -59.1996 152° Southeast  Level FlightAware Approximate
01:35AM -1.3352 -59.1387 152° Southeast  Level FlightAware Approximate
01:36AM -1.4489 -59.0778 152° Southeast  Level FlightAware Approximate
01:37AM -1.5625 -59.0170 152° Southeast  Level FlightAware Approximate
01:38AM -1.6762 -58.9561 152° Southeast  Level FlightAware Approximate
01:39AM -1.7899 -58.8952 152° Southeast  Level FlightAware Approximate
01:40AM -1.9035 -58.8344 152° Southeast  Level FlightAware Approximate
01:41AM -2.0172 -58.7735 152° Southeast  Level FlightAware Approximate
01:42AM -2.1309 -58.7126 152° Southeast  Level FlightAware Approximate
01:43AM -2.2445 -58.6516 152° Southeast  Level FlightAware Approximate
01:44AM -2.3582 -58.5907 152° Southeast  Level FlightAware Approximate
01:45AM -2.4718 -58.5298 152° Southeast  Level FlightAware Approximate
01:46AM -2.5855 -58.4689 152° Southeast  Level FlightAware Approximate
01:47AM -2.6991 -58.4079 152° Southeast  Level FlightAware Approximate
01:48AM -2.8128 -58.3470 152° Southeast  Level FlightAware Approximate
01:49AM -2.9264 -58.2860 152° Southeast  Level FlightAware Approximate
01:50AM -3.0401 -58.2250 152° Southeast  Level FlightAware Approximate
01:51AM -3.1537 -58.1640 152° Southeast  Level FlightAware Approximate
01:52AM -3.2673 -58.1030 152° Southeast  Level FlightAware Approximate
01:53AM -3.3810 -58.0420 152° Southeast  Level FlightAware Approximate
01:54AM -3.4946 -57.9809 152° Southeast  Level FlightAware Approximate
01:55AM -3.6082 -57.9199 152° Southeast  Level FlightAware Approximate
01:56AM -3.7218 -57.8588 152° Southeast  Level FlightAware Approximate
01:57AM -3.8354 -57.7977 152° Southeast  Level FlightAware Approximate
01:58AM -3.9490 -57.7366 152° Southeast  Level FlightAware Approximate
01:59AM -4.0627 -57.6755 152° Southeast  Level FlightAware Approximate
02:00AM -4.1762 -57.6144 152° Southeast  Level FlightAware Approximate
02:01AM -4.2898 -57.5532 152° Southeast  Level FlightAware Approximate
02:02AM -4.4034 -57.4921 152° Southeast  Level FlightAware Approximate
02:03AM -4.5170 -57.4309 152° Southeast  Level FlightAware Approximate
02:04AM -4.6306 -57.3697 152° Southeast  Level FlightAware Approximate
02:05AM -4.7442 -57.3084 152° Southeast  Level FlightAware Approximate
02:06AM -4.8577 -57.2472 152° Southeast  Level FlightAware Approximate
02:07AM -4.9713 -57.1859 152° Southeast  Level FlightAware Approximate
02:08AM -5.0848 -57.1246 152° Southeast  Level FlightAware Approximate
02:09AM -5.1984 -57.0633 152° Southeast  Level FlightAware Approximate
02:10AM -5.3120 -57.0020 152° Southeast  Level FlightAware Approximate
02:11AM -5.4255 -56.9406 152° Southeast  Level FlightAware Approximate
02:12AM -5.5390 -56.8792 152° Southeast  Level FlightAware Approximate
02:13AM -5.6526 -56.8178 152° Southeast  Level FlightAware Approximate
02:14AM -5.7661 -56.7564 152° Southeast  Level FlightAware Approximate
02:15AM -5.8796 -56.6950 152° Southeast  Level FlightAware Approximate
02:16AM -5.9931 -56.6335 152° Southeast  Level FlightAware Approximate
02:17AM -6.1066 -56.5720 152° Southeast  Level FlightAware Approximate
02:18AM -6.2201 -56.5105 152° Southeast  Level FlightAware Approximate
02:19AM -6.3336 -56.4489 152° Southeast  Level FlightAware Approximate
02:20AM -6.4471 -56.3873 152° Southeast  Level FlightAware Approximate
02:21AM -6.5595 -56.3262 152° Southeast  Level FlightAware Approximate
02:22AM -6.6720 -56.2651 152° Southeast  Level FlightAware Approximate
02:23AM -6.7845 -56.2040 152° Southeast  Level FlightAware Approximate
02:24AM -6.8970 -56.1428 152° Southeast  Level FlightAware Approximate
02:25AM -7.0095 -56.0816 152° Southeast  Level FlightAware Approximate
02:26AM -7.1219 -56.0204 152° Southeast  Level FlightAware Approximate
02:27AM -7.2344 -55.9592 152° Southeast  Level FlightAware Approximate
02:28AM -7.3468 -55.8979 152° Southeast  Level FlightAware Approximate
02:29AM -7.4593 -55.8366 152° Southeast  Level FlightAware Approximate
02:30AM -7.5717 -55.7752 152° Southeast  Level FlightAware Approximate
02:31AM -7.6841 -55.7138 152° Southeast  Level FlightAware Approximate
02:32AM -7.7965 -55.6524 152° Southeast  Level FlightAware Approximate
02:33AM -7.9089 -55.5910 152° Southeast  Level FlightAware Approximate
02:34AM -8.0213 -55.5295 152° Southeast  Level FlightAware Approximate
02:35AM -8.1337 -55.4680 152° Southeast  Level FlightAware Approximate
02:36AM -8.2463 -55.4063 152° Southeast  Level FlightAware Approximate
02:37AM -8.3589 -55.3446 152° Southeast  Level FlightAware Approximate
02:38AM -8.4715 -55.2829 152° Southeast  Level FlightAware Approximate
02:39AM -8.5841 -55.2211 152° Southeast  Level FlightAware Approximate
02:40AM -8.6967 -55.1593 151° Southeast  Level FlightAware Approximate
02:41AM -8.8093 -55.0974 151° Southeast  Level FlightAware Approximate
02:42AM -8.9218 -55.0355 151° Southeast  Level FlightAware Approximate
02:43AM -9.0344 -54.9736 151° Southeast  Level FlightAware Approximate
02:44AM -9.1469 -54.9116 151° Southeast  Level FlightAware Approximate
02:45AM -9.2594 -54.8496 151° Southeast  Level FlightAware Approximate
02:46AM -9.3720 -54.7875 151° Southeast  Level FlightAware Approximate
02:47AM -9.4845 -54.7254 151° Southeast  Level FlightAware Approximate
02:48AM -9.5969 -54.6633 151° Southeast  Level FlightAware Approximate
02:49AM -9.7094 -54.6011 151° Southeast  Level FlightAware Approximate
02:50AM -9.8219 -54.5389 151° Southeast  Level FlightAware Approximate
02:51AM -9.9344 -54.4767 151° Southeast  Level FlightAware Approximate
02:52AM -10.0468 -54.4144 151° Southeast  Level FlightAware Approximate
02:53AM -10.1593 -54.3520 151° Southeast  Level FlightAware Approximate
02:54AM -10.2717 -54.2896 151° Southeast  Level FlightAware Approximate
02:55AM -10.3841 -54.2272 151° Southeast  Level FlightAware Approximate
02:56AM -10.4965 -54.1647 151° Southeast  Level FlightAware Approximate
02:57AM -10.6089 -54.1022 151° Southeast  Level FlightAware Approximate
02:58AM -10.7212 -54.0396 151° Southeast  Level FlightAware Approximate
02:59AM -10.8336 -53.9770 151° Southeast  Level FlightAware Approximate
03:00AM -10.9460 -53.9144 151° Southeast  Level FlightAware Approximate
03:01AM -11.0583 -53.8517 151° Southeast  Level FlightAware Approximate
03:02AM -11.1706 -53.7889 151° Southeast  Level FlightAware Approximate
03:03AM -11.2829 -53.7261 151° Southeast  Level FlightAware Approximate
03:04AM -11.3952 -53.6632 151° Southeast  Level FlightAware Approximate
03:05AM -11.5075 -53.6003 151° Southeast  Level FlightAware Approximate
03:06AM -11.6198 -53.5374 151° Southeast  Level FlightAware Approximate
03:07AM -11.7320 -53.4744 151° Southeast  Level FlightAware Approximate
03:08AM -11.8443 -53.4113 151° Southeast  Level FlightAware Approximate
03:09AM -11.9565 -53.3482 151° Southeast  Level FlightAware Approximate
03:10AM -12.0687 -53.2850 151° Southeast  Level FlightAware Approximate
03:11AM -12.1809 -53.2218 151° Southeast  Level FlightAware Approximate
03:12AM -12.2931 -53.1586 151° Southeast  Level FlightAware Approximate
03:13AM -12.4053 -53.0952 151° Southeast  Level FlightAware Approximate
03:14AM -12.5172 -53.0320 151° Southeast  Level FlightAware Approximate
03:15AM -12.6291 -52.9687 151° Southeast  Level FlightAware Approximate
03:16AM -12.7410 -52.9053 151° Southeast  Level FlightAware Approximate
03:17AM -12.8529 -52.8419 151° Southeast  Level FlightAware Approximate
03:18AM -12.9647 -52.7785 151° Southeast  Level FlightAware Approximate
03:19AM -13.0766 -52.7150 151° Southeast  Level FlightAware Approximate
03:20AM -13.1884 -52.6514 151° Southeast  Level FlightAware Approximate
03:21AM -13.3002 -52.5877 151° Southeast  Level FlightAware Approximate
03:22AM -13.4120 -52.5240 151° Southeast  Level FlightAware Approximate
03:23AM -13.5238 -52.4603 151° Southeast  Level FlightAware Approximate
03:24AM -13.6355 -52.3965 151° Southeast  Level FlightAware Approximate
03:25AM -13.7473 -52.3326 151° Southeast  Level FlightAware Approximate
03:26AM -13.8590 -52.2687 151° Southeast  Level FlightAware Approximate
03:27AM -13.9707 -52.2047 151° Southeast  Level FlightAware Approximate
03:28AM -14.0824 -52.1406 151° Southeast  Level FlightAware Approximate
03:29AM -14.1941 -52.0765 151° Southeast  Level FlightAware Approximate
03:30AM -14.3058 -52.0123 151° Southeast  Level FlightAware Approximate
03:31AM -14.4174 -51.9480 151° Southeast  Level FlightAware Approximate
03:32AM -14.5291 -51.8837 151° Southeast  Level FlightAware Approximate
03:33AM -14.6407 -51.8193 151° Southeast  Level FlightAware Approximate
03:34AM -14.7523 -51.7549 151° Southeast  Level FlightAware Approximate
03:35AM -14.8638 -51.6904 151° Southeast  Level FlightAware Approximate
03:36AM -14.9754 -51.6258 151° Southeast  Level FlightAware Approximate
03:37AM -15.0869 -51.5611 151° Southeast  Level FlightAware Approximate
03:38AM -15.1985 -51.4964 151° Southeast  Level FlightAware Approximate
03:39AM -15.3100 -51.4317 151° Southeast  Level FlightAware Approximate
03:40AM -15.4214 -51.3668 151° Southeast  Level FlightAware Approximate
03:41AM -15.5329 -51.3019 151° Southeast  Level FlightAware Approximate
03:42AM -15.6444 -51.2369 151° Southeast  Level FlightAware Approximate
03:43AM -15.7558 -51.1718 151° Southeast  Level FlightAware Approximate
03:44AM -15.8672 -51.1067 151° Southeast  Level FlightAware Approximate
03:45AM -15.9786 -51.0415 151° Southeast  Level FlightAware Approximate
03:46AM -16.0900 -50.9762 151° Southeast  Level FlightAware Approximate
03:47AM -16.2013 -50.9109 151° Southeast  Level FlightAware Approximate
03:48AM -16.3126 -50.8455 151° Southeast  Level FlightAware Approximate
03:49AM -16.4239 -50.7799 151° Southeast  Level FlightAware Approximate
03:50AM -16.5352 -50.7144 151° Southeast  Level FlightAware Approximate
03:51AM -16.6465 -50.6487 151° Southeast  Level FlightAware Approximate
03:52AM -16.7577 -50.5830 150° Southeast  Level FlightAware Approximate
03:53AM -16.8690 -50.5172 150° Southeast  Level FlightAware Approximate
03:54AM -16.9802 -50.4513 150° Southeast  Level FlightAware Approximate
03:55AM -17.0914 -50.3854 150° Southeast  Level FlightAware Approximate
03:56AM -17.2025 -50.3193 150° Southeast  Level FlightAware Approximate
03:57AM -17.3137 -50.2532 150° Southeast  Level FlightAware Approximate
03:58AM -17.4248 -50.1870 150° Southeast  Level FlightAware Approximate
03:59AM -17.5359 -50.1207 150° Southeast  Level FlightAware Approximate
04:00AM -17.6469 -50.0544 150° Southeast  Level FlightAware Approximate
04:01AM -17.7580 -49.9879 150° Southeast  Level FlightAware Approximate
04:02AM -17.8690 -49.9214 150° Southeast  Level FlightAware Approximate
04:03AM -17.9800 -49.8548 150° Southeast  Level FlightAware Approximate
04:04AM -18.0910 -49.7881 150° Southeast  Level FlightAware Approximate
04:05AM -18.2020 -49.7214 150° Southeast  Level FlightAware Approximate
04:06AM -18.3129 -49.6545 150° Southeast  Level FlightAware Approximate
04:07AM -18.4238 -49.5876 150° Southeast  Level FlightAware Approximate
04:08AM -18.5352 -49.5202 150° Southeast  Level FlightAware Approximate
04:09AM -18.6466 -49.4528 150° Southeast  Level FlightAware Approximate
04:10AM -18.7579 -49.3853 150° Southeast  Level FlightAware Approximate
04:11AM -18.8692 -49.3177 150° Southeast  Level FlightAware Approximate
04:12AM -18.9804 -49.2501 150° Southeast  Level FlightAware Approximate
04:13AM -19.0917 -49.1823 150° Southeast  Level FlightAware Approximate
04:14AM -19.2029 -49.1144 150° Southeast  Level FlightAware Approximate
04:15AM -19.3141 -49.0465 150° Southeast  Level FlightAware Approximate
04:16AM -19.4253 -48.9785 150° Southeast  Level FlightAware Approximate
04:17AM -19.5364 -48.9103 150° Southeast  Level FlightAware Approximate
04:18AM -19.6476 -48.8421 150° Southeast  Level FlightAware Approximate
04:19AM -19.7587 -48.7738 150° Southeast  Level FlightAware Approximate
04:20AM -19.8697 -48.7053 150° Southeast  Level FlightAware Approximate
04:21AM -19.9808 -48.6368 150° Southeast  Level FlightAware Approximate
04:22AM -20.0918 -48.5682 150° Southeast  Level FlightAware Approximate
04:23AM -20.2028 -48.4995 150° Southeast  Level FlightAware Approximate
04:24AM -20.3137 -48.4307 150° Southeast  Level FlightAware Approximate
04:25AM -20.4247 -48.3618 150° Southeast  Level FlightAware Approximate
04:26AM -20.5356 -48.2928 150° Southeast  Level FlightAware Approximate
04:27AM -20.6465 -48.2237 150° Southeast  Level FlightAware Approximate
04:28AM -20.7573 -48.1545 150° Southeast  Level FlightAware Approximate
04:29AM -20.8682 -48.0852 150° Southeast  Level FlightAware Approximate
04:30AM -20.9790 -48.0158 150° Southeast  Level FlightAware Approximate
04:31AM -21.0897 -47.9463 150° Southeast  Level FlightAware Approximate
04:32AM -21.2005 -47.8767 150° Southeast  Level FlightAware Approximate
04:33AM -21.3112 -47.8069 150° Southeast  Level FlightAware Approximate
04:34AM -21.4219 -47.7371 131° Southeast  Level FlightAware Approximate
04:35AM -21.5008 -47.6386 151° Southeast  Level FlightAware Approximate
04:36AM -21.6125 -47.5714 151° Southeast  Level FlightAware Approximate
04:37AM -21.7242 -47.5034 147° Southeast  Level FlightAware Approximate
04:38AM -21.8321 -47.4286 151° Southeast  Level FlightAware Approximate
04:39AM -21.9449 -47.3625 151° Southeast  Level FlightAware Approximate
04:40AM -22.0567 -47.2946 152° Southeast  Level FlightAware Approximate
04:41AM -22.1693 -47.2286 150° Southeast  Level FlightAware Approximate
04:42AM -22.2799 -47.1582 151° Southeast  Level FlightAware Approximate
04:43AM -22.3917 -47.0900 149° Southeast  Level FlightAware Approximate
04:44AM -22.5022 -47.0194 151° Southeast  Level FlightAware Approximate
04:45AM -22.6141 -46.9512 151° Southeast  Level FlightAware Approximate
04:46AM -22.7259 -46.8830 152° Southeast  Level FlightAware Approximate
04:47AM -22.8382 -46.8178 151° Southeast  Level FlightAware Approximate
04:48AM -22.9508 -46.7510 150° Southeast  Level FlightAware Approximate
04:49AM -23.0620 -46.6813 152° Southeast  Level FlightAware Approximate
04:50AM -23.1738 -46.6175 150° Southeast  Level FlightAware Approximate
04:51AM -23.2854 -46.5484 150° Southeast  Level FlightAware Approximate